Flight Track Log - Related Links

Times and Time Zones

All times are in EDT time to prevent confusion due to time zone crossing. See the FDX1254 flight status page for this flight to view local times or setup timezone preferences in your user account.

Time Position Orientation Groundspeed Altitude Reporting Facility
EDT Latitude Longitude Course Direction KTS MPH feet Rate Location/Type
Tue 09:18:02 PM 41.7600 -71.6090 321° Northwest 282 325 7,900  Level FlightAware ADS-B
Tue 09:18:32 PM 41.7880 -71.6420 319° Northwest 292 336 9,300 1,900 Climbing FlightAware ADS-B
Tue 09:19:02 PM 41.8220 -71.6830 318° Northwest 338 389 9,800 1,200 Climbing FlightAware ADS-B
Tue 09:19:47 PM 41.8760 -71.7490 318° Northwest 392 451 10,800 2,471 Climbing FlightAware ADS-B
Tue 09:20:27 PM 41.9360 -71.8200 319° Northwest 394 453 13,300 3,600 Climbing FlightAware ADS-B
Tue 09:21:22 PM 42.0180 -71.9190 318° Northwest 417 480 16,500 3,300 Climbing FlightAware ADS-B
Tue 09:22:07 PM 42.0710 -72.0080 309° West 428 493 18,800 3,040 Climbing FlightAware ADS-B
Tue 09:22:37 PM 42.0830 -72.0870 282° West 438 504 20,300 2,625 Climbing FlightAware ADS-B
Tue 09:23:27 PM 42.0780 -72.2150 267° West 451 519 22,300 2,274 Climbing FlightAware ADS-B
Tue 09:24:12 PM 42.0770 -72.3130 269° West 456 525 23,900 1,133 Climbing FlightAware ADS-B
Tue 09:24:57 PM 42.0780 -72.4670 271° West 465 535 24,000 133 Climbing FlightAware ADS-B
Tue 09:25:42 PM 42.0790 -72.6100 271° West 467 537 24,100 1,137 Climbing FlightAware ADS-B
Tue 09:26:32 PM 42.0800 -72.7660 271° West 477 549 25,800 1,600 Climbing FlightAware ADS-B
Tue 09:27:12 PM 42.0810 -72.8760 271° West 483 556 26,500 1,425 Climbing FlightAware ADS-B
Tue 09:27:52 PM 42.0810 -72.9970 270° West 490 564 27,700 2,188 Climbing FlightAware ADS-B
Tue 09:28:37 PM 42.0810 -73.1360 270° West 480 552 29,600 2,612 Climbing FlightAware ADS-B
Tue 09:29:17 PM 42.0810 -73.2580 270° West 474 545 31,400 2,640 Climbing FlightAware ADS-B
Tue 09:29:52 PM 42.0810 -73.3600 270° West 468 539 32,900 2,100 Climbing FlightAware ADS-B
Tue 09:30:37 PM 42.0810 -73.4850 270° West 472 543 34,200 1,933 Climbing FlightAware ADS-B
Tue 09:31:22 PM 42.0810 -73.6260 270° West 469 540 35,800 2,160 Climbing FlightAware ADS-B
Tue 09:31:27 PM 42.0807 -73.6463 269° West 468 539 36,000 1,946 Climbing FlightAware ADS-B
Tue 09:31:59 PM 42.0803 -73.7362 270° West 465 535 37,000 1,742 Climbing FlightAware ADS-B
Tue 09:32:29 PM 42.0799 -73.8226 270° West 464 534 37,800 1,574 Climbing FlightAware ADS-B
Tue 09:33:00 PM 42.0795 -73.9148 270° West 463 533 38,600 1,333 Climbing FlightAware ADS-B
Tue 09:33:32 PM 42.0789 -74.0070 270° West 465 535 39,200 1,217 Climbing FlightAware ADS-B
Tue 09:34:09 PM 42.0781 -74.1135 269° West 463 533 40,000 696 Climbing FlightAware ADS-B
Tue 09:34:41 PM 42.0775 -74.2054 270° West 462 532 40,000  Level FlightAware ADS-B
Tue 09:35:12 PM 42.0767 -74.2942 269° West 461 531 40,000  Level FlightAware ADS-B
Tue 09:35:42 PM 42.0759 -74.3799 269° West 460 529 40,000  Level FlightAware ADS-B
Tue 09:36:06 PM 42.0750 -74.4482 269° West 459 528 40,000  Level FlightAware ADS-B
Tue 09:36:34 PM 42.0691 -74.5252 264° West 463 533 40,000  Level FlightAware ADS-B
Tue 09:37:05 PM 42.0546 -74.6160 258° West 470 541 40,000  Level FlightAware ADS-B
Tue 09:37:36 PM 42.0381 -74.7010 255° West 470 541 40,000  Level FlightAware ADS-B
Tue 09:38:09 PM 42.0203 -74.7961 256° West 465 535 40,000  Level FlightAware ADS-B
Tue 09:38:40 PM 42.0038 -74.8795 255° West 461 531 40,000  Level FlightAware ADS-B
Tue 09:39:10 PM 41.9871 -74.9647 255° West 458 527 40,000  Level FlightAware ADS-B
Tue 09:39:43 PM 41.9697 -75.0524 255° West 455 524 40,000  Level FlightAware ADS-B
Tue 09:40:13 PM 41.9533 -75.1341 255° West 455 524 40,000  Level FlightAware ADS-B
Tue 09:40:43 PM 41.9369 -75.2187 255° West 456 525 40,000  Level FlightAware ADS-B
Tue 09:41:14 PM 41.9198 -75.3032 255° West 455 524 40,000  Level FlightAware ADS-B
Tue 09:41:45 PM 41.9031 -75.3877 255° West 456 525 40,000  Level FlightAware ADS-B
Tue 09:42:15 PM 41.8867 -75.4698 255° West 457 526 40,000  Level FlightAware ADS-B
Tue 09:42:46 PM 41.8699 -75.5520 255° West 457 526 40,000  Level FlightAware ADS-B
Tue 09:43:16 PM 41.8531 -75.6369 255° West 459 528 40,000  Level FlightAware ADS-B
Tue 09:43:47 PM 41.8359 -75.7218 255° West 460 529 40,000  Level FlightAware ADS-B
Tue 09:44:18 PM 41.8184 -75.8071 255° West 460 529 40,000  Level FlightAware ADS-B
Tue 09:44:49 PM 41.8013 -75.8922 255° West 460 529 40,000  Level FlightAware ADS-B
Tue 09:45:23 PM 41.7821 -75.9852 255° West 458 527 40,000  Level FlightAware ADS-B
Tue 09:45:56 PM 41.7641 -76.0725 255° West 458 527 40,000  Level FlightAware ADS-B
Tue 09:46:26 PM 41.7470 -76.1572 255° West 457 526 40,000  Level FlightAware ADS-B
Tue 09:46:58 PM 41.7290 -76.2439 254° West 456 525 40,000  Level FlightAware ADS-B
Tue 09:47:29 PM 41.7117 -76.3253 254° West 455 524 40,000  Level FlightAware ADS-B
Tue 09:47:59 PM 41.6946 -76.4090 255° West 454 522 40,000  Level FlightAware ADS-B
Tue 09:48:30 PM 41.6771 -76.4900 254° West 454 522 40,000  Level FlightAware ADS-B
Tue 09:49:02 PM 41.6586 -76.5790 254° West 453 521 40,000  Level FlightAware ADS-B
Tue 09:49:33 PM 41.6415 -76.6592 254° West 451 519 40,000  Level FlightAware ADS-B
Tue 09:50:03 PM 41.6240 -76.7421 254° West 449 517 40,000  Level FlightAware ADS-B
Tue 09:50:34 PM 41.6065 -76.8246 254° West 448 516 40,000  Level FlightAware ADS-B
Tue 09:51:05 PM 41.5891 -76.9070 254° West 448 516 40,000  Level FlightAware ADS-B
Tue 09:51:36 PM 41.5716 -76.9866 254° West 448 516 40,000  Level FlightAware ADS-B
Tue 09:52:09 PM 41.5523 -77.0770 254° West 448 516 40,000  Level FlightAware ADS-B
Tue 09:52:41 PM 41.5342 -77.1618 254° West 448 516 40,000  Level FlightAware ADS-B
Tue 09:53:11 PM 41.5168 -77.2416 254° West 448 516 40,000  Level FlightAware ADS-B
Tue 09:53:41 PM 41.4994 -77.3212 254° West 448 516 40,000  Level FlightAware ADS-B
Tue 09:54:19 PM 41.4772 -77.4214 254° West 447 514 40,000  Level FlightAware ADS-B
Tue 09:55:12 PM 41.4500 -77.5430 253° West 448 516 40,000  Level FlightAware ADS-B
Tue 09:55:52 PM 41.4270 -77.6510 254° West 447 514 40,000  Level FlightAware ADS-B
Tue 09:56:37 PM 41.4020 -77.7620 253° West 446 513 40,000  Level FlightAware ADS-B
Tue 09:57:17 PM 41.3780 -77.8670 253° West 445 512 40,000  Level FlightAware ADS-B
Tue 09:57:57 PM 41.3530 -77.9800 254° West 446 513 40,000  Level FlightAware ADS-B
Tue 09:58:42 PM 41.3280 -78.0930 254° West 447 514 40,000  Level FlightAware ADS-B
Tue 09:59:22 PM 41.3070 -78.1990 255° West 445 512 40,000  Level FlightAware ADS-B
Tue 10:00:07 PM 41.3010 -78.3240 266° West 445 512 40,000  Level FlightAware ADS-B
Tue 10:00:47 PM 41.3000 -78.4360 269° West 446 513 40,000  Level FlightAware ADS-B
Tue 10:01:27 PM 41.2980 -78.5400 269° West 446 513 40,000  Level FlightAware ADS-B
Tue 10:02:12 PM 41.2960 -78.6800 269° West 446 513 40,000  Level FlightAware ADS-B
Tue 10:02:47 PM 41.2950 -78.7670 269° West 446 513 40,000  Level FlightAware ADS-B
Tue 10:03:37 PM 41.2920 -78.8990 268° West 446 513 40,000  Level FlightAware ADS-B
Tue 10:04:17 PM 41.2900 -79.0110 269° West 446 513 40,000  Level FlightAware ADS-B
Tue 10:04:57 PM 41.2880 -79.1150 269° West 445 512 40,000  Level FlightAware ADS-B
Tue 10:05:42 PM 41.2860 -79.2430 269° West 445 512 40,000  Level FlightAware ADS-B
Tue 10:06:22 PM 41.2840 -79.3500 269° West 445 512 40,000  Level FlightAware ADS-B
Tue 10:07:07 PM 41.2810 -79.4720 268° West 445 512 40,000  Level FlightAware ADS-B
Tue 10:07:47 PM 41.2790 -79.5850 269° West 447 514 40,000  Level FlightAware ADS-B
Tue 10:08:32 PM 41.2760 -79.7080 268° West 447 514 40,000  Level FlightAware ADS-B
Tue 10:09:12 PM 41.2730 -79.8070 268° West 448 516 40,000  Level FlightAware ADS-B
Tue 10:09:52 PM 41.2700 -79.9190 268° West 449 517 40,000  Level FlightAware ADS-B
Tue 10:10:37 PM 41.2670 -80.0490 268° West 450 518 40,000  Level FlightAware ADS-B
Tue 10:11:17 PM 41.2640 -80.1600 268° West 451 519 40,000  Level FlightAware ADS-B
Tue 10:12:02 PM 41.2600 -80.2870 268° West 452 520 40,000  Level FlightAware ADS-B
Tue 10:12:42 PM 41.2560 -80.3950 267° West 452 520 40,000  Level FlightAware ADS-B
Tue 10:13:22 PM 41.2520 -80.5030 267° West 452 520 40,000  Level FlightAware ADS-B
Tue 10:14:07 PM 41.2470 -80.6310 267° West 452 520 40,000  Level FlightAware ADS-B
Tue 10:14:47 PM 41.2430 -80.7380 267° West 451 519 40,000  Level FlightAware ADS-B
Tue 10:15:32 PM 41.2370 -80.8680 267° West 450 518 40,000  Level FlightAware ADS-B
Tue 10:16:07 PM 41.2340 -80.9650 268° West 449 517 40,000  Level FlightAware ADS-B
Tue 10:16:57 PM 41.2270 -81.1100 266° West 446 513 40,000  Level FlightAware ADS-B
Tue 10:17:37 PM 41.2230 -81.2190 267° West 445 512 40,000  Level FlightAware ADS-B
Tue 10:18:17 PM 41.2180 -81.3230 266° West 446 513 40,000  Level FlightAware ADS-B
Tue 10:19:02 PM 41.2120 -81.4540 267° West 446 513 40,000  Level FlightAware ADS-B
Tue 10:19:42 PM 41.2070 -81.5640 267° West 446 513 40,000  Level FlightAware ADS-B
Tue 10:20:27 PM 41.2010 -81.6840 266° West 446 513 40,000  Level FlightAware ADS-B
Tue 10:21:07 PM 41.1960 -81.7850 266° West 447 514 40,000  Level FlightAware ADS-B
Tue 10:21:47 PM 41.1900 -81.9030 266° West 447 514 40,000 -988 Level FlightAware ADS-B
Tue 10:22:32 PM 41.1840 -82.0240 266° West 456 525 38,600 -1,412 Descending FlightAware ADS-B
Tue 10:23:12 PM 41.1780 -82.1430 266° West 464 534 38,000 -450 Descending FlightAware ADS-B
Tue 10:23:52 PM 41.1720 -82.2560 266° West 465 535 38,000 -565 Level FlightAware ADS-B
Tue 10:24:37 PM 41.1660 -82.3790 266° West 466 536 37,200 -1,200 Descending FlightAware ADS-B
Tue 10:25:17 PM 41.1590 -82.4990 266° West 474 545 36,300 -1,200 Descending FlightAware ADS-B
Tue 10:25:57 PM 41.1530 -82.6180 266° West 477 549 35,600 -988 Descending FlightAware ADS-B
Tue 10:26:42 PM 41.1450 -82.7440 265° West 476 548 34,900 -933 Descending FlightAware ADS-B
Tue 10:27:27 PM 41.1380 -82.8780 266° West 478 550 34,200 -918 Descending FlightAware ADS-B
Tue 10:28:07 PM 41.1310 -82.9860 265° West 480 552 33,600 -900 Descending FlightAware ADS-B
Tue 10:28:47 PM 41.1240 -83.1040 266° West 480 552 33,000 -918 Descending FlightAware ADS-B
Tue 10:29:32 PM 41.1160 -83.2440 266° West 479 551 32,300 -988 Descending FlightAware ADS-B
Tue 10:30:12 PM 41.1090 -83.3580 265° West 471 542 31,600 -2,400 Descending FlightAware ADS-B
Tue 10:30:57 PM 41.1000 -83.4930 265° West 479 551 28,900 -3,882 Descending FlightAware ADS-B
Tue 10:31:37 PM 41.0930 -83.6080 265° West 481 554 26,100 -3,900 Descending FlightAware ADS-B
Tue 10:32:17 PM 41.0850 -83.7230 265° West 465 535 23,700 -3,388 Descending FlightAware ADS-B
Tue 10:33:02 PM 41.0770 -83.8470 265° West 455 524 21,300 -3,318 Descending FlightAware ADS-B
Tue 10:33:42 PM 41.0690 -83.9560 264° West 438 504 19,000 -3,529 Descending FlightAware ADS-B
Tue 10:34:27 PM 41.0610 -84.0800 265° West 423 487 16,300 -3,318 Descending FlightAware ADS-B
Tue 10:35:07 PM 41.0540 -84.1760 265° West 409 471 14,300 -3,150 Descending FlightAware ADS-B
Tue 10:35:47 PM 41.0470 -84.2770 265° West 396 456 12,100 -2,400 Descending FlightAware ADS-B
Tue 10:36:32 PM 41.0400 -84.3810 265° West 383 441 10,900 -847 Descending FlightAware ADS-B
Tue 10:37:12 PM 41.0330 -84.4800 265° West 388 447 10,900  Level FlightAware ADS-B
Tue 10:37:52 PM 41.0260 -84.5700 264° West 379 436 10,900  Level FlightAware ADS-B
Tue 10:38:37 PM 41.0190 -84.6660 265° West 311 358 10,900 -225 Level FlightAware ADS-B
Tue 10:39:12 PM 41.0150 -84.7290 265° West 288 331 10,600 -540 Descending FlightAware ADS-B
Tue 10:40:17 PM 41.0380 -84.8270 287° West 283 326 10,000 -343 Descending FlightAware ADS-B
Tue 10:40:57 PM 41.0540 -84.8820 291° West 283 326 10,000  Level FlightAware ADS-B
Tue 10:41:37 PM 41.0700 -84.9370 291° West 283 326 10,000 -3,632 Level FlightAware ADS-B
Tue 10:42:51 PM 41.0903 -85.0550 291° West 262 302 3,100 -3,333 Descending Chicago Center
Tue 10:43:52 PM 41.0469 -85.1033 220° Southwest 222 255 2,500 -738 Descending Chicago Center
Tue 10:44:53 PM 41.0161 -85.1428 224° Southwest 183 211 1,600 -541 Descending Chicago Center
Tue 10:45:54 PM 40.9836 -85.1850 224° Southwest 170 196 1,400 -197 Descending Chicago Center

Login

Don't have an account? Register now (free) for customized features, flight alerts, and more!